Wolf, Ohio
Current Conditions -  °F | °C
As of 6:53 AM on Thursday 29 Jan 2015 (Local Time) from KPHD Reporting Station
Clear Clear  
Wind Chill: 20°   Ceiling: Unl
Heat Index: 28°   Visibility: 10mi
Dew Point: 14°   Wind: 8mph
Humidity: 56%   Direction: 150°SSE
Pressure: 30.01"   Gusts: NA
Location:  40.2433°N, 81.534°W
Report Text: KPHD 291153Z AUTO 15007KT 10SM CLR M02/M10 A3001 RMK AO2 SLP174 T10221100 11022 21050 56040
Loading
Personal Weather Stations






























Interactive Weather Map New forecast layout! Learn more

10-Day Weather Forecast

Advertisements
Track Severe Weather on mobile